Time;durP1;ratioP1;P1;durP2;ratioP2;P2;SDS_P1;SDS_P2;PMS_P1;PMS_P2;Temp;Humidity;BMP_temperature;BMP_pressure;BME280_temperature;BME280_humidity;BME280_pressure;Samples;Min_cycle;Max_cycle;Signal;HPM_P1;HPM_P2
2023/04/19 00:00:58;;;;;;;7.95;2.70;;;;;;;;;;4980764;28;20037;-78
2023/04/19 00:03:24;;;;;;;5.53;2.60;;;;;;;;;;4981356;28;20022;-78
2023/04/19 00:05:53;;;;;;;5.80;2.63;;;;;;;;;;4981152;28;20033;-78
2023/04/19 00:08:19;;;;;;;7.88;3.03;;;;;;;;;;4977990;28;20027;-77
2023/04/19 00:10:45;;;;;;;5.03;2.40;;;;;;;;;;4982652;28;20022;-79
2023/04/19 00:13:11;;;;;;;5.38;2.70;;;;;;;;;;4979204;28;20758;-79
2023/04/19 00:15:37;;;;;;;7.15;2.80;;;;;;;;;;4980777;28;20051;-79
2023/04/19 00:18:04;;;;;;;4.20;2.70;;;;;;;;;;4977361;28;20109;-78
2023/04/19 00:20:30;;;;;;;8.68;3.30;;;;;;;;;;4976747;28;20112;-79
2023/04/19 00:22:57;;;;;;;3.38;2.35;;;;;;;;;;4979761;28;20736;-79
2023/04/19 00:25:24;;;;;;;11.27;3.17;;;;;;;;;;4978337;28;20756;-79
2023/04/19 00:27:50;;;;;;;4.30;2.50;;;;;;;;;;4978154;28;20119;-79
2023/04/19 00:30:16;;;;;;;9.50;2.80;;;;;;;;;;4981474;28;20054;-79
2023/04/19 00:32:42;;;;;;;4.07;2.72;;;;;;;;;;4980285;28;20027;-79
2023/04/19 00:35:09;;;;;;;4.10;2.65;;;;;;;;;;4980362;28;20110;-78
2023/04/19 00:37:35;;;;;;;7.78;2.75;;;;;;;;;;4980726;28;20030;-78
2023/04/19 00:40:03;;;;;;;4.78;2.65;;;;;;;;;;4972577;28;20113;-78
2023/04/19 00:42:29;;;;;;;4.75;2.55;;;;;;;;;;4981058;28;20038;-78
2023/04/19 00:44:55;;;;;;;5.22;3.03;;;;;;;;;;4980064;28;20428;-78
2023/04/19 00:47:22;;;;;;;5.57;2.95;;;;;;;;;;4980713;28;20121;-78
2023/04/19 00:49:48;;;;;;;5.22;2.90;;;;;;;;;;4979857;28;20026;-78
2023/04/19 00:52:14;;;;;;;7.45;3.08;;;;;;;;;;4979966;28;20145;-78
2023/04/19 00:54:42;;;;;;;5.72;2.80;;;;;;;;;;4974253;28;20109;-78
2023/04/19 00:57:08;;;;;;;6.88;2.92;;;;;;;;;;4982023;28;20027;-79
2023/04/19 00:59:34;;;;;;;6.63;2.85;;;;;;;;;;4977966;28;20612;-78
2023/04/19 01:02:00;;;;;;;4.70;2.33;;;;;;;;;;4981115;28;20546;-78
2023/04/19 01:04:27;;;;;;;6.47;2.67;;;;;;;;;;4979623;28;20019;-78
2023/04/19 01:06:53;;;;;;;4.32;2.60;;;;;;;;;;4983072;28;20034;-78
2023/04/19 01:09:19;;;;;;;4.68;2.67;;;;;;;;;;4979331;28;20081;-78
2023/04/19 01:11:46;;;;;;;6.50;2.70;;;;;;;;;;4989032;28;20054;-78
2023/04/19 01:14:12;;;;;;;6.18;2.65;;;;;;;;;;4982576;28;20030;-78
2023/04/19 01:16:38;;;;;;;5.53;2.97;;;;;;;;;;4987595;28;20093;-78
2023/04/19 01:19:05;;;;;;;4.28;2.95;;;;;;;;;;4985144;28;20129;-78
2023/04/19 01:21:31;;;;;;;5.32;2.28;;;;;;;;;;4986085;28;20475;-79
2023/04/19 01:23:57;;;;;;;5.00;2.60;;;;;;;;;;4978530;28;20026;-79
2023/04/19 01:26:24;;;;;;;5.53;2.70;;;;;;;;;;4986187;28;20125;-79
2023/04/19 01:28:50;;;;;;;5.57;2.85;;;;;;;;;;4984007;28;20030;-78
2023/04/19 01:31:16;;;;;;;5.38;2.85;;;;;;;;;;4987513;28;20034;-78
2023/04/19 01:33:43;;;;;;;6.90;2.78;;;;;;;;;;4967998;28;20023;-79
2023/04/19 01:36:09;;;;;;;7.07;2.65;;;;;;;;;;4987545;28;20027;-79
2023/04/19 01:38:35;;;;;;;7.93;2.30;;;;;;;;;;4980129;28;20475;-78
2023/04/19 01:41:01;;;;;;;5.25;2.72;;;;;;;;;;4983574;28;20454;-78
2023/04/19 01:43:28;;;;;;;5.72;2.88;;;;;;;;;;4980220;28;20173;-79
2023/04/19 01:45:54;;;;;;;4.40;2.60;;;;;;;;;;4981793;28;20821;-79
2023/04/19 01:48:20;;;;;;;9.77;2.38;;;;;;;;;;4978432;28;20069;-78
2023/04/19 01:50:46;;;;;;;4.47;2.35;;;;;;;;;;4989330;28;20014;-78
2023/04/19 01:53:12;;;;;;;3.95;2.13;;;;;;;;;;4983063;28;20109;-78
2023/04/19 01:55:39;;;;;;;5.78;2.45;;;;;;;;;;4984939;28;20022;-78
2023/04/19 01:58:05;;;;;;;3.38;2.22;;;;;;;;;;4981551;28;20110;-78
2023/04/19 02:00:31;;;;;;;4.28;2.03;;;;;;;;;;4980480;28;20118;-79
2023/04/19 02:02:57;;;;;;;4.07;1.75;;;;;;;;;;4978726;28;20065;-78
2023/04/19 02:05:24;;;;;;;4.25;2.20;;;;;;;;;;4984811;28;20586;-79
2023/04/19 02:07:50;;;;;;;3.10;2.20;;;;;;;;;;4971476;28;20038;-78
2023/04/19 02:10:16;;;;;;;3.83;2.03;;;;;;;;;;4985618;28;20053;-78
2023/04/19 02:12:42;;;;;;;4.03;2.30;;;;;;;;;;4985357;28;20057;-79
2023/04/19 02:15:08;;;;;;;4.28;1.90;;;;;;;;;;4985194;28;20117;-78
2023/04/19 02:17:35;;;;;;;4.13;2.05;;;;;;;;;;4983610;28;20023;-78
2023/04/19 02:20:01;;;;;;;4.30;2.13;;;;;;;;;;4985077;28;20038;-79
2023/04/19 02:22:27;;;;;;;4.28;1.92;;;;;;;;;;4986228;28;20125;-79
2023/04/19 02:24:55;;;;;;;4.80;1.95;;;;;;;;;;4983021;28;20046;-78
2023/04/19 02:27:21;;;;;;;2.40;1.70;;;;;;;;;;4985345;28;20117;-79
2023/04/19 02:29:47;;;;;;;5.07;1.90;;;;;;;;;;4983232;28;20025;-78
2023/04/19 02:32:13;;;;;;;2.92;1.90;;;;;;;;;;4985080;28;20037;-79
2023/04/19 02:34:40;;;;;;;5.00;2.03;;;;;;;;;;4986696;28;20014;-79
2023/04/19 02:37:06;;;;;;;3.70;2.25;;;;;;;;;;4984643;28;20476;-78
2023/04/19 02:39:33;;;;;;;3.53;2.10;;;;;;;;;;4979690;28;20073;-79
2023/04/19 02:42:00;;;;;;;6.80;2.50;;;;;;;;;;4985451;28;20023;-79
2023/04/19 02:44:26;;;;;;;4.47;2.55;;;;;;;;;;4982373;28;20501;-79
2023/04/19 02:46:53;;;;;;;5.00;2.13;;;;;;;;;;4967283;28;20510;-79
2023/04/19 02:49:19;;;;;;;4.05;2.17;;;;;;;;;;4981627;28;20041;-78
2023/04/19 02:51:46;;;;;;;3.17;2.28;;;;;;;;;;4985298;28;20113;-78
2023/04/19 02:54:12;;;;;;;4.05;2.17;;;;;;;;;;4981338;28;20069;-78
2023/04/19 02:56:39;;;;;;;3.70;2.50;;;;;;;;;;4965597;28;20032;-78
2023/04/19 02:59:05;;;;;;;7.10;2.45;;;;;;;;;;4962936;28;20663;-78
2023/04/19 03:01:32;;;;;;;6.28;2.20;;;;;;;;;;4984023;28;20876;-78
2023/04/19 03:03:58;;;;;;;6.18;2.45;;;;;;;;;;4983642;28;20037;-78
2023/04/19 03:06:25;;;;;;;6.40;2.30;;;;;;;;;;4983126;28;20042;-79
2023/04/19 03:08:51;;;;;;;3.40;2.40;;;;;;;;;;4979670;28;20050;-78
2023/04/19 03:11:18;;;;;;;5.05;2.33;;;;;;;;;;4985140;28;20029;-79
2023/04/19 03:13:44;;;;;;;3.30;2.20;;;;;;;;;;4979431;28;20087;-79
2023/04/19 03:16:10;;;;;;;5.03;2.20;;;;;;;;;;4984466;28;20033;-78
2023/04/19 03:18:36;;;;;;;8.63;2.50;;;;;;;;;;4979936;28;20050;-78
2023/04/19 03:21:03;;;;;;;3.65;2.42;;;;;;;;;;4981841;28;20113;-78
2023/04/19 03:23:30;;;;;;;5.10;2.65;;;;;;;;;;4976712;28;20491;-79
2023/04/19 03:25:56;;;;;;;5.47;2.55;;;;;;;;;;4979974;28;20113;-79
2023/04/19 03:28:22;;;;;;;5.47;2.45;;;;;;;;;;4977362;28;20030;-78
2023/04/19 03:30:48;;;;;;;4.10;2.40;;;;;;;;;;4983092;28;20101;-79
2023/04/19 03:33:15;;;;;;;6.25;2.30;;;;;;;;;;4973902;28;20158;-79
2023/04/19 03:35:41;;;;;;;3.25;2.10;;;;;;;;;;4980866;28;20037;-78
2023/04/19 03:38:07;;;;;;;5.18;2.40;;;;;;;;;;4981794;28;20034;-78
2023/04/19 03:40:34;;;;;;;4.35;2.42;;;;;;;;;;4979533;28;20413;-79
2023/04/19 03:43:00;;;;;;;6.80;2.47;;;;;;;;;;4979493;28;20084;-78
2023/04/19 03:45:26;;;;;;;5.30;2.40;;;;;;;;;;4981239;28;20038;-79
2023/04/19 03:47:53;;;;;;;4.72;2.50;;;;;;;;;;4982637;28;20151;-79
2023/04/19 03:50:19;;;;;;;5.60;2.40;;;;;;;;;;4985235;28;20236;-79
2023/04/19 03:52:45;;;;;;;5.45;2.60;;;;;;;;;;4980434;28;20109;-78
2023/04/19 03:55:12;;;;;;;6.15;2.65;;;;;;;;;;4978718;28;20133;-78
2023/04/19 03:57:39;;;;;;;4.78;2.58;;;;;;;;;;4980089;28;20073;-79
2023/04/19 04:00:06;;;;;;;2.65;2.10;;;;;;;;;;4963087;28;20493;-78
2023/04/19 04:02:33;;;;;;;6.50;2.75;;;;;;;;;;4975878;28;20046;-78
2023/04/19 04:04:59;;;;;;;4.80;2.50;;;;;;;;;;4983210;28;20655;-78
2023/04/19 04:07:25;;;;;;;6.65;2.45;;;;;;;;;;4980244;28;20034;-79
2023/04/19 04:09:52;;;;;;;4.90;2.58;;;;;;;;;;4977926;28;20455;-79
2023/04/19 04:12:18;;;;;;;4.03;2.10;;;;;;;;;;4981475;28;20030;-79
2023/04/19 04:14:44;;;;;;;3.88;2.25;;;;;;;;;;4980101;28;20380;-78
2023/04/19 04:17:10;;;;;;;5.72;2.20;;;;;;;;;;4979463;28;20105;-78
2023/04/19 04:19:37;;;;;;;4.88;2.33;;;;;;;;;;4976585;28;20578;-79
2023/04/19 04:22:03;;;;;;;5.65;2.25;;;;;;;;;;4974733;28;20054;-79
2023/04/19 04:24:31;;;;;;;4.25;2.55;;;;;;;;;;4976283;28;20033;-79
2023/04/19 04:26:59;;;;;;;4.10;2.35;;;;;;;;;;4981812;28;20040;-79
2023/04/19 04:29:26;;;;;;;3.50;2.40;;;;;;;;;;4976584;28;20474;-80
2023/04/19 04:31:52;;;;;;;6.38;2.90;;;;;;;;;;4975625;28;20121;-79
2023/04/19 04:34:19;;;;;;;7.05;2.75;;;;;;;;;;4960261;28;20065;-78
2023/04/19 04:36:46;;;;;;;4.25;2.78;;;;;;;;;;4978445;28;20023;-79
2023/04/19 04:39:12;;;;;;;4.15;2.35;;;;;;;;;;4980023;28;20026;-78
2023/04/19 04:41:40;;;;;;;5.03;2.80;;;;;;;;;;4981460;28;20022;-79
2023/04/19 04:44:11;;;;;;;5.32;2.42;;;;;;;;;;4978020;28;20141;-78
2023/04/19 04:46:37;;;;;;;4.07;2.33;;;;;;;;;;4983155;28;20124;-78
2023/04/19 04:49:03;;;;;;;8.82;2.40;;;;;;;;;;4981598;28;20023;-79
2023/04/19 04:51:30;;;;;;;4.30;2.50;;;;;;;;;;4984987;28;20411;-78
2023/04/19 04:53:57;;;;;;;4.07;2.55;;;;;;;;;;4983009;28;20494;-78
2023/04/19 04:56:24;;;;;;;5.78;2.70;;;;;;;;;;4984608;28;20038;-78
2023/04/19 04:58:51;;;;;;;4.25;2.53;;;;;;;;;;4978271;28;20023;-79
2023/04/19 05:01:18;;;;;;;4.57;2.90;;;;;;;;;;4985075;28;20087;-75
2023/04/19 05:03:44;;;;;;;11.73;3.78;;;;;;;;;;4978719;28;20093;-78
2023/04/19 05:06:11;;;;;;;8.18;2.65;;;;;;;;;;4984606;28;20597;-79
2023/04/19 05:08:37;;;;;;;6.88;3.03;;;;;;;;;;4975696;28;20117;-79
2023/04/19 05:11:03;;;;;;;8.98;2.42;;;;;;;;;;4984678;28;20027;-79
2023/04/19 05:13:29;;;;;;;5.93;2.95;;;;;;;;;;4983539;28;20101;-80
2023/04/19 05:15:56;;;;;;;7.70;3.00;;;;;;;;;;4982387;28;20139;-79
2023/04/19 05:18:22;;;;;;;4.85;3.08;;;;;;;;;;4981529;28;20110;-79
2023/04/19 05:20:48;;;;;;;8.40;3.13;;;;;;;;;;4970239;28;20141;-79
2023/04/19 05:23:14;;;;;;;7.63;3.58;;;;;;;;;;4970549;28;20789;-78
2023/04/19 05:25:40;;;;;;;12.23;3.70;;;;;;;;;;4965192;28;20089;-78
2023/04/19 05:28:06;;;;;;;5.53;3.50;;;;;;;;;;4965300;28;20585;-79
2023/04/19 05:30:33;;;;;;;10.40;4.18;;;;;;;;;;4966304;28;20031;-79
2023/04/19 05:32:59;;;;;;;6.70;3.83;;;;;;;;;;4969028;28;20031;-79
2023/04/19 05:35:25;;;;;;;8.98;3.85;;;;;;;;;;4966734;28;20057;-80
2023/04/19 05:37:52;;;;;;;7.45;3.55;;;;;;;;;;4966595;28;20106;-78
2023/04/19 05:40:18;;;;;;;7.40;3.47;;;;;;;;;;4965278;28;20590;-73
2023/04/19 05:42:44;;;;;;;19.88;4.25;;;;;;;;;;4971689;28;20050;-73
2023/04/19 05:45:11;;;;;;;5.95;4.15;;;;;;;;;;4964820;28;20487;-78
2023/04/19 05:47:37;;;;;;;11.50;4.40;;;;;;;;;;4964523;28;20039;-80
2023/04/19 05:50:04;;;;;;;6.80;3.25;;;;;;;;;;4966158;28;20046;-80
2023/04/19 05:52:30;;;;;;;6.57;3.53;;;;;;;;;;4972215;28;20030;-79
2023/04/19 05:54:56;;;;;;;12.20;3.22;;;;;;;;;;4949746;28;20145;-80
2023/04/19 05:57:22;;;;;;;6.53;3.28;;;;;;;;;;4964532;28;20046;-80
2023/04/19 05:59:49;;;;;;;7.78;3.20;;;;;;;;;;4965245;28;20174;-80
2023/04/19 06:02:15;;;;;;;7.18;3.10;;;;;;;;;;4958608;28;20041;-80
2023/04/19 06:04:41;;;;;;;7.32;2.95;;;;;;;;;;4964362;28;20070;-79
2023/04/19 06:07:07;;;;;;;6.50;2.78;;;;;;;;;;4962462;28;20030;-79
2023/04/19 06:09:33;;;;;;;6.72;3.30;;;;;;;;;;4965534;28;20027;-80
2023/04/19 06:12:00;;;;;;;7.70;3.30;;;;;;;;;;4965262;28;20150;-80
2023/04/19 06:14:30;;;;;;;11.23;3.47;;;;;;;;;;4967923;28;20033;-81
2023/04/19 06:16:56;;;;;;;6.20;3.58;;;;;;;;;;4971022;28;20022;-80
2023/04/19 06:19:23;;;;;;;8.98;4.03;;;;;;;;;;4972137;28;20061;-79
2023/04/19 06:21:49;;;;;;;6.63;3.30;;;;;;;;;;4983070;28;20022;-80
2023/04/19 06:24:15;;;;;;;6.32;3.00;;;;;;;;;;4990196;28;20052;-80
2023/04/19 06:26:42;;;;;;;7.50;3.20;;;;;;;;;;4965068;28;20471;-80
2023/04/19 06:29:08;;;;;;;6.70;3.03;;;;;;;;;;4965477;28;20511;-80
2023/04/19 06:31:34;;;;;;;8.77;3.45;;;;;;;;;;4981491;28;20044;-81
2023/04/19 06:34:00;;;;;;;6.22;3.22;;;;;;;;;;4983407;28;20023;-80
2023/04/19 06:36:27;;;;;;;8.77;3.60;;;;;;;;;;4982971;28;20030;-81
2023/04/19 06:38:53;;;;;;;5.53;3.50;;;;;;;;;;4982477;28;20129;-80
2023/04/19 06:41:19;;;;;;;10.18;3.58;;;;;;;;;;4981134;28;20080;-80
2023/04/19 06:43:46;;;;;;;6.30;3.42;;;;;;;;;;4983093;28;20038;-80
2023/04/19 06:46:15;;;;;;;6.25;2.88;;;;;;;;;;4982202;28;20461;-80
2023/04/19 06:48:41;;;;;;;6.57;2.55;;;;;;;;;;4983427;28;20014;-81
2023/04/19 06:51:07;;;;;;;5.78;2.55;;;;;;;;;;4982558;28;20057;-80
2023/04/19 06:53:34;;;;;;;11.43;3.58;;;;;;;;;;4982014;28;20026;-79
2023/04/19 06:56:01;;;;;;;5.80;2.53;;;;;;;;;;4963158;28;20109;-80
2023/04/19 06:58:28;;;;;;;11.70;3.10;;;;;;;;;;4982697;28;20030;-81
2023/04/19 07:00:55;;;;;;;41.67;13.93;;;;;;;;;;4982739;28;20105;-80
2023/04/19 07:03:21;;;;;;;5.57;3.70;;;;;;;;;;4964120;28;20030;-81
2023/04/19 07:05:47;;;;;;;3.95;2.40;;;;;;;;;;4981093;28;20616;-80
2023/04/19 07:08:14;;;;;;;3.60;2.45;;;;;;;;;;4981676;28;20074;-80
2023/04/19 07:10:42;;;;;;;9.45;2.80;;;;;;;;;;4981885;28;20030;-79
2023/04/19 07:13:08;;;;;;;95.57;20.17;;;;;;;;;;4980900;28;20021;-80
2023/04/19 07:15:35;;;;;;;6.72;2.80;;;;;;;;;;4981778;28;20045;-80
2023/04/19 07:18:01;;;;;;;5.95;2.55;;;;;;;;;;4982324;28;20022;-80
2023/04/19 07:20:28;;;;;;;8.55;2.17;;;;;;;;;;4982353;28;20081;-80
2023/04/19 07:22:54;;;;;;;3.45;2.30;;;;;;;;;;4981838;28;20023;-79
2023/04/19 07:25:20;;;;;;;6.85;2.45;;;;;;;;;;4981839;28;20475;-80
2023/04/19 07:27:46;;;;;;;5.95;2.10;;;;;;;;;;4980175;28;20104;-81
2023/04/19 07:30:13;;;;;;;5.45;2.88;;;;;;;;;;4982168;28;20158;-79
2023/04/19 07:32:39;;;;;;;8.05;3.88;;;;;;;;;;4982487;28;20113;-80
2023/04/19 07:35:06;;;;;;;8.90;4.35;;;;;;;;;;4980610;28;20789;-80
2023/04/19 07:37:32;;;;;;;5.95;2.83;;;;;;;;;;4980474;28;20495;-81
2023/04/19 07:39:59;;;;;;;3.88;2.67;;;;;;;;;;4982349;28;20027;-80
2023/04/19 07:42:25;;;;;;;4.57;2.53;;;;;;;;;;4964402;28;20033;-80
2023/04/19 07:44:51;;;;;;;5.25;2.72;;;;;;;;;;4981289;28;20050;-80
2023/04/19 07:47:17;;;;;;;4.90;2.50;;;;;;;;;;4981661;28;20034;-80
2023/04/19 07:49:44;;;;;;;5.68;2.72;;;;;;;;;;4963190;28;20752;-80
2023/04/19 07:52:10;;;;;;;4.43;2.45;;;;;;;;;;4978144;28;20030;-79
2023/04/19 07:54:38;;;;;;;3.83;2.20;;;;;;;;;;4985549;28;20026;-79
2023/04/19 07:57:04;;;;;;;3.50;2.40;;;;;;;;;;4983257;28;20019;-79
2023/04/19 07:59:32;;;;;;;5.45;2.53;;;;;;;;;;4979396;28;20018;-80
2023/04/19 08:01:58;;;;;;;3.03;1.95;;;;;;;;;;4979649;28;20062;-80
2023/04/19 08:04:24;;;;;;;4.97;2.25;;;;;;;;;;4982161;28;20121;-80
2023/04/19 08:06:51;;;;;;;4.22;2.00;;;;;;;;;;4979499;28;20113;-81
2023/04/19 08:09:18;;;;;;;4.05;2.47;;;;;;;;;;4980918;28;20598;-77
2023/04/19 08:11:44;;;;;;;6.45;2.10;;;;;;;;;;4983139;28;20022;-76
2023/04/19 08:14:11;;;;;;;6.13;2.35;;;;;;;;;;4983874;28;20489;-79
2023/04/19 08:16:37;;;;;;;4.28;2.20;;;;;;;;;;4977797;28;20031;-80
2023/04/19 08:19:03;;;;;;;2.50;2.05;;;;;;;;;;4979789;28;20047;-80
2023/04/19 08:21:30;;;;;;;3.92;2.25;;;;;;;;;;4965943;28;20041;-81
2023/04/19 08:23:56;;;;;;;4.93;2.50;;;;;;;;;;4981682;28;20019;-80
2023/04/19 08:26:22;;;;;;;3.65;2.42;;;;;;;;;;4982505;28;20065;-81
2023/04/19 08:28:51;;;;;;;6.43;2.70;;;;;;;;;;4981272;28;20149;-79
2023/04/19 08:31:19;;;;;;;6.10;2.70;;;;;;;;;;4976302;28;20038;-79
2023/04/19 08:33:46;;;;;;;5.82;2.97;;;;;;;;;;4978212;28;20026;-80
2023/04/19 08:36:12;;;;;;;4.93;2.78;;;;;;;;;;4980905;28;20105;-78
2023/04/19 08:38:40;;;;;;;5.25;2.47;;;;;;;;;;4980440;28;20030;-80
2023/04/19 08:41:06;;;;;;;5.35;2.60;;;;;;;;;;4982797;28;20018;-80
2023/04/19 08:43:35;;;;;;;9.63;3.20;;;;;;;;;;4982818;28;20022;-79
2023/04/19 08:46:03;;;;;;;7.65;3.03;;;;;;;;;;4982993;28;20153;-79
2023/04/19 08:48:29;;;;;;;5.40;2.85;;;;;;;;;;4981657;28;20018;-80
2023/04/19 08:50:57;;;;;;;5.03;2.83;;;;;;;;;;4986276;28;20026;-80
2023/04/19 08:53:25;;;;;;;5.68;2.80;;;;;;;;;;4982667;28;20022;-80
2023/04/19 08:55:57;;;;;;;6.80;2.95;;;;;;;;;;4981241;28;20148;-75
2023/04/19 08:58:23;;;;;;;4.65;2.55;;;;;;;;;;4982898;28;20489;-78
2023/04/19 09:00:49;;;;;;;5.55;3.00;;;;;;;;;;4983572;28;20023;-78
2023/04/19 09:03:16;;;;;;;5.30;2.60;;;;;;;;;;4982203;28;20810;-78
2023/04/19 09:05:42;;;;;;;6.75;2.92;;;;;;;;;;4983176;28;20105;-77
2023/04/19 09:08:21;;;;;;;7.38;2.42;;;;;;;;;;4980927;28;20617;-78
2023/04/19 09:10:58;;;;;;;7.70;2.92;;;;;;;;;;4979387;28;20014;-78
2023/04/19 09:13:24;;;;;;;5.15;2.85;;;;;;;;;;4981798;28;20066;-78
2023/04/19 09:15:50;;;;;;;5.55;2.75;;;;;;;;;;4982002;28;20081;-77
2023/04/19 09:18:18;;;;;;;3.97;2.90;;;;;;;;;;4982002;28;20050;-78
2023/04/19 09:20:44;;;;;;;6.10;2.83;;;;;;;;;;4982732;28;20844;-77
2023/04/19 09:23:12;;;;;;;4.22;2.40;;;;;;;;;;4981414;28;20058;-78
2023/04/19 09:25:38;;;;;;;6.68;2.22;;;;;;;;;;4976112;28;20045;-78
2023/04/19 09:28:11;;;;;;;7.20;2.70;;;;;;;;;;4981624;28;20243;-78
2023/04/19 09:30:37;;;;;;;4.60;2.47;;;;;;;;;;4982814;28;20018;-78
2023/04/19 09:33:04;;;;;;;5.90;2.67;;;;;;;;;;4983778;28;20105;-78
2023/04/19 09:35:40;;;;;;;5.38;2.13;;;;;;;;;;4986297;28;20085;-78
2023/04/19 09:38:06;;;;;;;5.93;2.60;;;;;;;;;;4983816;28;20018;-78
2023/04/19 09:40:32;;;;;;;4.90;2.50;;;;;;;;;;4984305;28;20054;-77
2023/04/19 09:42:58;;;;;;;4.35;2.30;;;;;;;;;;4983281;28;20172;-78
2023/04/19 09:45:27;;;;;;;5.22;2.55;;;;;;;;;;4984395;28;20058;-78
2023/04/19 09:48:06;;;;;;;7.97;2.50;;;;;;;;;;4985208;28;20034;-78
2023/04/19 09:50:32;;;;;;;4.63;2.53;;;;;;;;;;4985090;28;20053;-78
2023/04/19 09:53:00;;;;;;;4.40;2.45;;;;;;;;;;4983713;28;20101;-78
2023/04/19 09:55:26;;;;;;;6.93;2.63;;;;;;;;;;4986205;28;20095;-78
2023/04/19 09:57:53;;;;;;;6.72;2.83;;;;;;;;;;4989551;28;20026;-78
2023/04/19 10:00:22;;;;;;;4.35;2.40;;;;;;;;;;4970972;28;20034;-78
2023/04/19 10:02:53;;;;;;;4.60;2.42;;;;;;;;;;4984625;28;20403;-78
2023/04/19 10:05:21;;;;;;;5.20;2.63;;;;;;;;;;4988456;28;20022;-78
2023/04/19 10:07:48;;;;;;;4.72;2.33;;;;;;;;;;4985461;28;20026;-78
2023/04/19 10:10:18;;;;;;;4.72;2.35;;;;;;;;;;4984487;28;20614;-77
2023/04/19 10:12:48;;;;;;;8.18;2.67;;;;;;;;;;4979921;28;20034;-78
2023/04/19 10:15:15;;;;;;;4.75;3.22;;;;;;;;;;4987196;28;20034;-78
2023/04/19 10:17:41;;;;;;;5.07;2.42;;;;;;;;;;4983626;28;20022;-78
2023/04/19 10:20:10;;;;;;;5.28;2.20;;;;;;;;;;4980890;28;20821;-78
2023/04/19 10:22:37;;;;;;;6.00;2.50;;;;;;;;;;4994102;28;20384;-78
2023/04/19 10:25:10;;;;;;;3.90;2.35;;;;;;;;;;4985721;28;20027;-78
2023/04/19 10:27:36;;;;;;;3.22;2.47;;;;;;;;;;4982512;28;20499;-78
2023/04/19 10:30:06;;;;;;;4.78;2.65;;;;;;;;;;4985248;28;20022;-78
2023/04/19 10:32:40;;;;;;;4.90;2.30;;;;;;;;;;4979980;28;20097;-73
2023/04/19 10:35:10;;;;;;;5.20;2.58;;;;;;;;;;4980909;28;20014;-72
2023/04/19 10:37:40;;;;;;;6.32;2.83;;;;;;;;;;4982001;28;20032;-74
2023/04/19 10:40:07;;;;;;;4.15;2.10;;;;;;;;;;4983954;28;20026;-73
2023/04/19 10:42:52;;;;;;;6.10;2.50;;;;;;;;;;4966158;28;20037;-72
2023/04/19 10:45:36;;;;;;;5.65;2.40;;;;;;;;;;4982484;28;20033;-73
2023/04/19 10:48:03;;;;;;;5.25;2.40;;;;;;;;;;4979280;28;20023;-79
2023/04/19 10:50:31;;;;;;;3.90;2.13;;;;;;;;;;4983071;28;20400;-80
2023/04/19 10:52:57;;;;;;;4.75;2.60;;;;;;;;;;4985101;28;20034;-79
2023/04/19 10:55:23;;;;;;;3.90;2.22;;;;;;;;;;4984408;28;20122;-79
2023/04/19 10:58:06;;;;;;;6.00;3.22;;;;;;;;;;4982177;28;20019;-79
2023/04/19 11:00:34;;;;;;;3.65;2.63;;;;;;;;;;4984261;28;20049;-80
2023/04/19 11:03:20;;;;;;;2.95;2.40;;;;;;;;;;4980411;28;20018;-79
2023/04/19 11:06:05;;;;;;;5.07;2.63;;;;;;;;;;4984195;28;20674;-79
2023/04/19 11:08:31;;;;;;;4.18;2.40;;;;;;;;;;4962935;28;20054;-79
2023/04/19 11:11:01;;;;;;;6.18;2.25;;;;;;;;;;4983840;28;20066;-79
2023/04/19 11:13:27;;;;;;;4.20;2.40;;;;;;;;;;4952936;28;20027;-79
2023/04/19 11:15:53;;;;;;;3.35;2.22;;;;;;;;;;4981477;28;20046;-79
2023/04/19 11:18:19;;;;;;;4.45;2.47;;;;;;;;;;4968600;28;20030;-80
2023/04/19 11:20:46;;;;;;;3.05;2.08;;;;;;;;;;4984098;28;20031;-79
2023/04/19 11:23:18;;;;;;;4.22;2.45;;;;;;;;;;4983509;28;20062;-79
2023/04/19 11:25:46;;;;;;;4.05;2.28;;;;;;;;;;4965856;28;20124;-80
2023/04/19 11:28:16;;;;;;;3.70;2.20;;;;;;;;;;4983382;28;20545;-78
2023/04/19 11:30:42;;;;;;;3.35;2.40;;;;;;;;;;4964173;28;20038;-78
2023/04/19 11:33:12;;;;;;;4.15;2.28;;;;;;;;;;4988166;28;20025;-79
2023/04/19 11:35:38;;;;;;;4.07;2.30;;;;;;;;;;4966525;28;20498;-78
2023/04/19 11:38:05;;;;;;;5.75;2.53;;;;;;;;;;4965723;28;20382;-78
2023/04/19 11:40:31;;;;;;;3.58;2.33;;;;;;;;;;4985514;28;20018;-78
2023/04/19 11:43:01;;;;;;;3.45;2.03;;;;;;;;;;4980895;28;20124;-79
2023/04/19 11:45:34;;;;;;;4.13;2.10;;;;;;;;;;4985595;28;20011;-79
2023/04/19 11:48:01;;;;;;;5.30;2.50;;;;;;;;;;4983784;28;20030;-79
2023/04/19 11:50:30;;;;;;;3.60;2.65;;;;;;;;;;4968191;28;20027;-79
2023/04/19 11:52:56;;;;;;;3.83;2.13;;;;;;;;;;4982300;28;20161;-79
2023/04/19 11:55:22;;;;;;;4.20;2.67;;;;;;;;;;4982974;28;20050;-75
2023/04/19 11:57:49;;;;;;;5.10;2.63;;;;;;;;;;4983753;28;20031;-74
2023/04/19 12:00:15;;;;;;;5.03;2.88;;;;;;;;;;4982066;28;20034;-76
2023/04/19 12:02:43;;;;;;;3.75;2.45;;;;;;;;;;4981996;28;20022;-77
2023/04/19 12:05:10;;;;;;;5.78;2.55;;;;;;;;;;4986756;28;20411;-74
2023/04/19 12:07:37;;;;;;;2.95;2.40;;;;;;;;;;4984431;28;20038;-75
2023/04/19 12:10:10;;;;;;;4.07;2.40;;;;;;;;;;4989960;28;20374;-76
2023/04/19 12:12:37;;;;;;;3.28;2.15;;;;;;;;;;4982817;28;20394;-76
2023/04/19 12:15:04;;;;;;;5.45;2.20;;;;;;;;;;4981561;28;20619;-74
2023/04/19 12:17:31;;;;;;;3.17;2.17;;;;;;;;;;4982436;28;20112;-75
2023/04/19 12:19:57;;;;;;;4.18;2.70;;;;;;;;;;4976664;28;20044;-74
2023/04/19 12:22:23;;;;;;;3.42;2.50;;;;;;;;;;4983230;28;20481;-70
2023/04/19 12:24:53;;;;;;;6.72;2.70;;;;;;;;;;4981370;28;20963;-73
2023/04/19 12:27:19;;;;;;;3.05;2.58;;;;;;;;;;4981638;28;20398;-77
2023/04/19 12:29:45;;;;;;;6.00;2.65;;;;;;;;;;4982837;28;20108;-75
2023/04/19 12:32:13;;;;;;;4.30;2.40;;;;;;;;;;4981890;28;20042;-75
2023/04/19 12:34:39;;;;;;;6.43;2.85;;;;;;;;;;4979799;28;20608;-75
2023/04/19 12:37:05;;;;;;;4.43;2.80;;;;;;;;;;4981579;28;20383;-76
2023/04/19 12:39:32;;;;;;;4.85;2.60;;;;;;;;;;4982810;28;20534;-75
2023/04/19 12:41:58;;;;;;;5.28;2.70;;;;;;;;;;4982434;28;20057;-75
2023/04/19 12:44:24;;;;;;;5.82;2.65;;;;;;;;;;4982450;28;20121;-74
2023/04/19 12:46:51;;;;;;;6.68;2.55;;;;;;;;;;4980801;28;20049;-76
2023/04/19 12:49:18;;;;;;;4.47;2.35;;;;;;;;;;4982609;28;20029;-73
2023/04/19 12:51:46;;;;;;;4.85;2.50;;;;;;;;;;4980968;28;20037;-74
2023/04/19 12:54:12;;;;;;;3.13;2.58;;;;;;;;;;4983002;28;20026;-81
2023/04/19 12:56:39;;;;;;;3.35;2.08;;;;;;;;;;4988120;28;20022;-75
2023/04/19 12:59:05;;;;;;;3.22;2.30;;;;;;;;;;4981422;28;20182;-76
2023/04/19 13:01:32;;;;;;;3.67;2.50;;;;;;;;;;4982526;28;20029;-76
2023/04/19 13:03:58;;;;;;;3.22;2.45;;;;;;;;;;4982588;28;20149;-76
2023/04/19 13:06:24;;;;;;;2.80;2.10;;;;;;;;;;4985992;28;20065;-75
2023/04/19 13:08:51;;;;;;;4.20;2.70;;;;;;;;;;4985898;28;20085;-76
2023/04/19 13:11:21;;;;;;;5.78;2.85;;;;;;;;;;4984623;28;20030;-75
2023/04/19 13:13:48;;;;;;;3.38;2.33;;;;;;;;;;4984671;28;20022;-76
2023/04/19 13:16:14;;;;;;;3.55;2.40;;;;;;;;;;4986235;28;20420;-74
2023/04/19 13:18:40;;;;;;;4.85;2.40;;;;;;;;;;4985587;28;20042;-75
2023/04/19 13:21:06;;;;;;;2.15;1.90;;;;;;;;;;4985525;28;20022;-74
2023/04/19 13:23:32;;;;;;;4.00;2.42;;;;;;;;;;4984954;28;20718;-76
2023/04/19 13:25:59;;;;;;;6.03;2.83;;;;;;;;;;4985206;28;20045;-74
2023/04/19 13:28:25;;;;;;;3.53;2.80;;;;;;;;;;4985764;28;20029;-75
2023/04/19 13:30:51;;;;;;;4.32;2.53;;;;;;;;;;4985843;28;20527;-75
2023/04/19 13:33:18;;;;;;;3.83;2.47;;;;;;;;;;4985911;28;20045;-79
2023/04/19 13:35:44;;;;;;;5.10;2.75;;;;;;;;;;4977288;28;20049;-75
2023/04/19 13:38:11;;;;;;;4.10;2.60;;;;;;;;;;4977524;28;20093;-78
2023/04/19 13:40:37;;;;;;;3.95;2.40;;;;;;;;;;4985070;28;20041;-78
2023/04/19 13:43:03;;;;;;;3.72;2.53;;;;;;;;;;4985620;28;20094;-77
2023/04/19 13:45:29;;;;;;;4.18;2.67;;;;;;;;;;4984012;28;20045;-78
2023/04/19 13:47:56;;;;;;;4.82;2.95;;;;;;;;;;4983479;28;20129;-76
2023/04/19 13:50:22;;;;;;;4.75;3.00;;;;;;;;;;4985530;28;20037;-77
2023/04/19 13:52:48;;;;;;;3.72;2.72;;;;;;;;;;4983934;28;20030;-77
2023/04/19 13:55:14;;;;;;;4.15;2.97;;;;;;;;;;4984729;28;20069;-76
2023/04/19 13:57:41;;;;;;;10.43;3.47;;;;;;;;;;4983667;28;20029;-76
2023/04/19 14:00:08;;;;;;;6.10;3.17;;;;;;;;;;4984946;28;20027;-75
2023/04/19 14:02:34;;;;;;;5.72;3.00;;;;;;;;;;4979223;28;20075;-76
2023/04/19 14:05:00;;;;;;;6.75;2.90;;;;;;;;;;4984633;28;20022;-75
2023/04/19 14:07:26;;;;;;;4.43;2.88;;;;;;;;;;4984219;28;20042;-75
2023/04/19 14:09:53;;;;;;;4.82;3.03;;;;;;;;;;4982815;28;20022;-73
2023/04/19 14:12:19;;;;;;;5.03;2.90;;;;;;;;;;4983161;28;20030;-74
2023/04/19 14:14:45;;;;;;;3.95;2.50;;;;;;;;;;4983708;28;20146;-74
2023/04/19 14:17:11;;;;;;;5.95;3.00;;;;;;;;;;4984111;28;20750;-75
2023/04/19 14:19:38;;;;;;;8.18;3.30;;;;;;;;;;4984194;28;20491;-74
2023/04/19 14:22:05;;;;;;;10.80;3.20;;;;;;;;;;4983957;28;20038;-74
2023/04/19 14:24:31;;;;;;;8.02;3.50;;;;;;;;;;4983418;28;20151;-73
2023/04/19 14:26:57;;;;;;;6.95;3.08;;;;;;;;;;4984862;28;20431;-74
2023/04/19 14:29:23;;;;;;;5.03;3.05;;;;;;;;;;4984673;28;20141;-76
2023/04/19 14:31:49;;;;;;;3.80;2.72;;;;;;;;;;4985238;28;20521;-76
2023/04/19 14:34:16;;;;;;;5.45;3.10;;;;;;;;;;4983181;28;20050;-73
2023/04/19 14:36:42;;;;;;;4.63;2.92;;;;;;;;;;4984827;28;20066;-75
2023/04/19 14:39:08;;;;;;;5.30;3.10;;;;;;;;;;4983691;28;20022;-76
2023/04/19 14:41:34;;;;;;;5.72;3.00;;;;;;;;;;4983861;28;20176;-73